Terminal Aerodrome Forecast
Issued by NWS Melbourne, FL

Home | Current Version | Previous Version | Text Only | Print | Product List | Glossary On
Versions: 1 2 3 4 5 6 7 8 9 10 11 12 13 14
000
FTUS42 KMLB 292300
TAFDAB
TAF
KDAB 292336Z 3000/3024 26005KT P6SM VCSH SCT030 BKN100 OVC250
     FM300200 VRB03KT P6SM SCT030 BKN120 OVC250
     FM300500 00000KT P6SM FEW020 SCT120 BKN250
     FM301400 14005KT P6SM SCT035
     FM301800 10008KT P6SM VCTS SCT040CB=

USA.gov is the U.S. government's official web portal to all federal, state and local government web resources and services.